UK Observations

EGAA 201950Z 18009KT 150V220 9999 BKN037 12/10 Q1010 EGAC 201950Z AUTO 17006KT 9999 SCT020/// BKN043/// 11/10 Q1010 EGBB 201950Z 20011KT CAVOK 09/07 Q1018 EGCC 201950Z AUTO 19006KT 130V230 9999 -RA BKN021 10/06 Q1017 NOSIG EGDM 201950Z AUTO 19009KT 9999 BKN008/// SCT030/// BKN060/// 08/07 Q1021 EGDR 201950Z 19011KT 9999 FEW008 SCT020 BKN040 10/09 Q1019 WHT TEMPO SCT008 GRN EGDY 201950Z 16008KT 9999 FEW010 SCT013 09/07 Q1020 GRN NOSIG EGFF 201950Z AUTO 18007KT 150V210 9999 FEW024 BKN038 10/07 Q1019 EGGD 201950Z 19012KT 150V220 9999 FEW012 SCT020 09/06 Q1019 EGGP 201950Z 18012KT 9999 BKN025 10/08 Q1016 EGGW 201950Z AUTO 21011KT 9999 NCD 08/06 Q1020 EGHI 201950Z 19005KT 160V220 CAVOK 07/06 Q1022 EGJB 201950Z 18009KT 9999 BKN035 09/08 Q1022 EGJJ 201950Z 18009KT CAVOK 09/07 Q1023 EGKA 201950Z 20010KT CAVOK 08/07 Q1022 EGKB 201950Z 21011KT CAVOK 07/05 Q1022 EGKK 201950Z 21005KT CAVOK 08/05 Q1022 EGLC 201950Z AUTO 22007KT 190V260 9999 NCD 09/06 Q1022 EGLF 201950Z 22004KT 180V240 9999 FEW014 07/05 Q1022 EGLL 201950Z AUTO 21008KT 9999 NCD 08/06 Q1022 NOSIG EGMC 201950Z 21008KT CAVOK 08/04 Q1021 EGMD 201950Z AUTO 21008KT 9000 NCD 07/06 Q1023 EGNH 201950Z 17011KT 9999 FEW015 BKN024 10/09 Q1015 EGNJ 201950Z 21014KT 9999 FEW024 09/07 Q1017 EGNM 201950Z 23010KT 200V270 9999 SCT010 SCT020 09/07 Q1015 EGNS 201950Z 21019KT 4000 BR BKN002 OVC003 10/09 Q1013 NOSIG EGNT 201950Z 22011KT 180V240 9999 FEW020 SCT040 10/07 Q1012 EGNV 201950Z 20011KT 9999 FEW018 SCT021 09/07 Q1014 EGNX 201950Z 22012KT 9999 FEW030 09/06 Q1018 EGOS 201950Z AUTO 18009KT 9999 OVC022/// 11/07 Q1017 RERA EGOV 201950Z AUTO 18021KT 4400 BR OVC003/// 09/09 Q1014 RERA EGPA 201950Z 25016KT 9999 VCSH FEW009 BKN012 09/08 Q1004 EGPB 201950Z 26014KT 8000 -DZ BKN006 08/08 Q1003 EGPC 201950Z 22003KT 9999 FEW012 08/06 Q1006 EGPD 201950Z AUTO 21005KT 9999 BKN037 10/08 Q1008 EGPE 201950Z 23012KT CAVOK 09/07 Q1006 EGPF 201950Z AUTO 22012KT 9999 BKN007 OVC048 10/10 Q1010 EGPH 201950Z 23011KT 9999 -RA BKN023 10/09 Q1010 EGPK 201950Z 20010KT 9999 SCT015 BKN025 11/10 Q1011 EGPM 201950Z AUTO 23013KT 9999 BKN010/// 08/08 Q1001 EGPN 201950Z 25014KT 9999 FEW015 SCT025 09/08 Q1009 EGPO 201950Z 21011KT 9999 FEW012 SCT024 BKN030 08/06 Q1005 EGPU 201950Z AUTO 16011KT 9999 BKN035/// 09/08 Q1007 EGQK 201950Z AUTO 23005KT 9999 BKN080/// 09/07 Q1006 EGQL 201950Z 24015KT 9999 BKN024 SCT160 11/09 Q1009 WHT EGQM 201950Z AUTO 20010KT 9999 SCT021/// BKN140/// 10/07 Q1012 EGQS 201950Z 23005KT CAVOK 06/04 Q1006 BLU EGSH 201950Z 20007KT CAVOK 09/05 Q1020 NOSIG EGSS 201950Z AUTO 21009KT 9999 NCD 08/05 Q1021 EGTE 201950Z 16009KT 9999 FEW013 BKN018 10/08 Q1020 EGUB 201950Z 18009KT 9999 FEW015 BKN020 09/07 Q1021 WHT TEMPO SCT014 GRN EGVA 201956Z AUTO 22012G17KT M M OVC017 10/07 A3011 RMK AO2 SLP201 T00960069 RVRNO $ EGVN 201950Z 21009KT 9999 BKN018 10/07 Q1020 NOSIG EGVN 201950Z 21009KT 9999 BKN018 10/07 Q1020 WHT NOSIG EGWU 201950Z 21006KT 9999 FEW018 SCT085 08/06 Q1021 NOSIG EGWU 201950Z 21006KT 9999 FEW018 SCT085 08/06 Q1021 BLU NOSIG EGXC 201950Z 19009KT CAVOK 09/06 Q1018 BLU EGXT 201950Z AUTO 22016KT 9999 BKN060/// 10/06 Q1018 EGYD 201950Z AUTO 21014KT 9999 // BKN070/// 10/06 Q1018 GBYD 202000Z 27006KT 9000 NSC 22/14 Q1011 KGNC 201955Z AUTO 23014G23KT 10SM CLR 12/M14 A2990 RMK AO2 T01191142 EGCN 201950Z 20010KT 9999 SCT026 10/07 Q1017 EGDX 201950Z AUTO 19006KT 9999 FEW023/// BKN034/// 11/07 Q1019 EGHQ 201950Z 19016KT 9999 BKN010 10/09 Q1019 EGNO 201950Z 18008KT 9999 SCT020 BKN030 10/09 Q1015 EGNR 201950Z 17011KT 9999 SCT015 SCT023 10/08 Q1017 EGOM 201950Z AUTO 22015KT 9999 BKN004/// BKN010/// 08/08 Q1011 RERA EGOP 201950Z AUTO 18018KT 3600 // OVC016/// 09/09 Q1018 EGPI 201950Z AUTO 14009KT 9999 BKN038/// 10/09 Q1009 EGUW 201950Z 20009KT CAVOK 08/05 Q1020 BLU NOSIG EGVO 201950Z 21010KT CAVOK 08/06 Q1021 BLU TEMPO SCT018 WHT EGVP 201950Z 20009KT 9999 SCT008 BKN033 09/07 Q1021 GRN NOSIG EGXE 201950Z AUTO 19008KT 9999 BKN017/// 10/08 Q1014 EGXP 201950Z AUTO 21011KT 9999 // SCT029/// BKN100/// 10/07 Q1017 EGXS 201950Z AUTO 19011KT 9999 // FEW070/// OVC090/// 10/06 Q1017 EGXU 201950Z AUTO 21010KT 9999 // FEW030/// BKN050/// 10/07 Q1015 EGXV 201950Z AUTO 21010KT 9999 FEW028/// BKN050/// BKN100/// 10/07 Q1016 EGXW 201950Z 21012KT 9999 BKN031 BKN080 10/07 Q1017 BLU EGYM 201950Z 20009KT CAVOK 09/05 Q1019 BLU EGTK 201950Z 20012KT 9999 BKN021 09/07 Q1020